Ledger, Montana
Current Conditions -  °F | °C
As of 12:53 PM on Tuesday 21 Oct 2014 (Local Time) from KGTF Reporting Station
Overcast Overcast  
Wind Chill: 51°   Ceiling: 7500
Heat Index: 51°   Visibility: 10mi
Dew Point: 43°   Wind: 24mph
Humidity: 74%   Direction: 330°NNW
Pressure: 29.71"   Gusts: 33mph
Location:  48.26°N, 111.82°W
Report Text: KGTF 211853Z 33021G29KT 10SM FEW060 OVC075 11/06 A2971 RMK AO2 PK WND 35033/1814 RAE00 SLP053 P0000 T01060061
Loading
Personal Weather Stations






























Interactive Weather Map
Tropical Storm Tracking
New forecast layout! Learn more

10-Day Weather Forecast

Advertisements
Track Severe Weather on mobile